sensor_id;sensor_type;location;lat;lon;timestamp;P1;durP1;ratioP1;P2;durP2;ratioP2
15488;SDS011;7846;48.830;9.116;2022-07-10T00:00:26;7.30;;;6.70;;
15488;SDS011;7846;48.830;9.116;2022-07-10T00:03:11;7.30;;;6.70;;
15488;SDS011;7846;48.830;9.116;2022-07-10T00:05:55;7.37;;;6.67;;
15488;SDS011;7846;48.830;9.116;2022-07-10T00:08:40;7.30;;;6.67;;
15488;SDS011;7846;48.830;9.116;2022-07-10T00:11:28;7.20;;;6.50;;
15488;SDS011;7846;48.830;9.116;2022-07-10T00:14:12;7.03;;;6.40;;
15488;SDS011;7846;48.830;9.116;2022-07-10T00:16:56;6.80;;;6.20;;
15488;SDS011;7846;48.830;9.116;2022-07-10T00:19:40;6.87;;;6.37;;
15488;SDS011;7846;48.830;9.116;2022-07-10T00:22:25;7.70;;;6.90;;
15488;SDS011;7846;48.830;9.116;2022-07-10T00:25:10;6.73;;;6.23;;
15488;SDS011;7846;48.830;9.116;2022-07-10T00:27:56;7.00;;;6.47;;
15488;SDS011;7846;48.830;9.116;2022-07-10T00:30:41;7.17;;;6.57;;
15488;SDS011;7846;48.830;9.116;2022-07-10T00:33:25;7.03;;;6.37;;
15488;SDS011;7846;48.830;9.116;2022-07-10T00:36:11;7.20;;;6.50;;
15488;SDS011;7846;48.830;9.116;2022-07-10T00:38:56;7.57;;;6.60;;
15488;SDS011;7846;48.830;9.116;2022-07-10T00:41:41;7.00;;;6.40;;
15488;SDS011;7846;48.830;9.116;2022-07-10T00:44:27;6.90;;;6.40;;
15488;SDS011;7846;48.830;9.116;2022-07-10T00:47:11;7.40;;;6.17;;
15488;SDS011;7846;48.830;9.116;2022-07-10T00:49:57;6.60;;;6.10;;
15488;SDS011;7846;48.830;9.116;2022-07-10T00:52:43;6.10;;;5.57;;
15488;SDS011;7846;48.830;9.116;2022-07-10T00:55:29;6.13;;;5.73;;
15488;SDS011;7846;48.830;9.116;2022-07-10T00:58:14;6.40;;;5.80;;
15488;SDS011;7846;48.830;9.116;2022-07-10T01:00:58;6.23;;;5.77;;
15488;SDS011;7846;48.830;9.116;2022-07-10T01:03:44;6.30;;;5.80;;
15488;SDS011;7846;48.830;9.116;2022-07-10T01:06:40;6.00;;;5.43;;
15488;SDS011;7846;48.830;9.116;2022-07-10T01:09:28;6.83;;;5.83;;
15488;SDS011;7846;48.830;9.116;2022-07-10T01:12:14;5.90;;;5.40;;
15488;SDS011;7846;48.830;9.116;2022-07-10T01:14:59;6.17;;;5.57;;
15488;SDS011;7846;48.830;9.116;2022-07-10T01:17:46;8.07;;;6.17;;
15488;SDS011;7846;48.830;9.116;2022-07-10T01:20:32;6.90;;;6.30;;
15488;SDS011;7846;48.830;9.116;2022-07-10T01:23:20;6.83;;;6.23;;
15488;SDS011;7846;48.830;9.116;2022-07-10T01:26:03;7.13;;;6.53;;
15488;SDS011;7846;48.830;9.116;2022-07-10T01:28:48;8.97;;;6.73;;
15488;SDS011;7846;48.830;9.116;2022-07-10T01:31:36;6.50;;;6.00;;
15488;SDS011;7846;48.830;9.116;2022-07-10T01:34:19;6.77;;;6.20;;
15488;SDS011;7846;48.830;9.116;2022-07-10T01:37:04;7.33;;;6.60;;
15488;SDS011;7846;48.830;9.116;2022-07-10T01:39:48;7.13;;;6.37;;
15488;SDS011;7846;48.830;9.116;2022-07-10T01:42:32;7.97;;;6.57;;
15488;SDS011;7846;48.830;9.116;2022-07-10T01:45:23;7.93;;;6.73;;
15488;SDS011;7846;48.830;9.116;2022-07-10T01:48:10;7.93;;;7.00;;
15488;SDS011;7846;48.830;9.116;2022-07-10T01:50:55;7.33;;;6.63;;
15488;SDS011;7846;48.830;9.116;2022-07-10T01:53:40;8.30;;;7.53;;
15488;SDS011;7846;48.830;9.116;2022-07-10T01:56:24;7.77;;;6.97;;
15488;SDS011;7846;48.830;9.116;2022-07-10T01:59:08;9.20;;;8.33;;
15488;SDS011;7846;48.830;9.116;2022-07-10T02:01:52;9.13;;;8.23;;
15488;SDS011;7846;48.830;9.116;2022-07-10T02:04:37;10.20;;;9.20;;
15488;SDS011;7846;48.830;9.116;2022-07-10T02:07:27;11.73;;;10.37;;
15488;SDS011;7846;48.830;9.116;2022-07-10T02:10:11;12.60;;;11.40;;
15488;SDS011;7846;48.830;9.116;2022-07-10T02:12:55;13.10;;;11.83;;
15488;SDS011;7846;48.830;9.116;2022-07-10T02:15:40;14.13;;;12.93;;
15488;SDS011;7846;48.830;9.116;2022-07-10T02:18:25;14.63;;;13.23;;
15488;SDS011;7846;48.830;9.116;2022-07-10T02:21:10;14.57;;;13.37;;
15488;SDS011;7846;48.830;9.116;2022-07-10T02:23:54;15.83;;;14.33;;
15488;SDS011;7846;48.830;9.116;2022-07-10T02:26:37;16.10;;;14.70;;
15488;SDS011;7846;48.830;9.116;2022-07-10T02:29:24;16.87;;;15.13;;
15488;SDS011;7846;48.830;9.116;2022-07-10T02:32:08;16.60;;;15.10;;
15488;SDS011;7846;48.830;9.116;2022-07-10T02:34:55;16.93;;;15.30;;
15488;SDS011;7846;48.830;9.116;2022-07-10T02:37:39;17.30;;;15.70;;
15488;SDS011;7846;48.830;9.116;2022-07-10T02:40:23;18.30;;;16.60;;
15488;SDS011;7846;48.830;9.116;2022-07-10T02:43:07;18.60;;;16.83;;
15488;SDS011;7846;48.830;9.116;2022-07-10T02:45:51;18.17;;;16.47;;
15488;SDS011;7846;48.830;9.116;2022-07-10T02:48:35;18.27;;;16.43;;
15488;SDS011;7846;48.830;9.116;2022-07-10T02:51:19;19.00;;;17.30;;
15488;SDS011;7846;48.830;9.116;2022-07-10T02:54:04;20.03;;;18.00;;
15488;SDS011;7846;48.830;9.116;2022-07-10T02:56:48;20.23;;;18.43;;
15488;SDS011;7846;48.830;9.116;2022-07-10T02:59:32;19.73;;;17.83;;
15488;SDS011;7846;48.830;9.116;2022-07-10T03:02:17;20.70;;;18.80;;
15488;SDS011;7846;48.830;9.116;2022-07-10T03:05:01;21.17;;;19.07;;
15488;SDS011;7846;48.830;9.116;2022-07-10T03:07:45;21.50;;;19.40;;
15488;SDS011;7846;48.830;9.116;2022-07-10T03:10:29;21.83;;;19.73;;
15488;SDS011;7846;48.830;9.116;2022-07-10T03:13:13;22.00;;;20.00;;
15488;SDS011;7846;48.830;9.116;2022-07-10T03:15:57;22.83;;;20.70;;
15488;SDS011;7846;48.830;9.116;2022-07-10T03:18:44;23.23;;;21.07;;
15488;SDS011;7846;48.830;9.116;2022-07-10T03:21:29;24.10;;;21.70;;
15488;SDS011;7846;48.830;9.116;2022-07-10T03:24:16;23.20;;;21.00;;
15488;SDS011;7846;48.830;9.116;2022-07-10T03:26:59;22.80;;;20.60;;
15488;SDS011;7846;48.830;9.116;2022-07-10T03:29:43;21.93;;;19.93;;
15488;SDS011;7846;48.830;9.116;2022-07-10T03:32:31;23.47;;;21.23;;
15488;SDS011;7846;48.830;9.116;2022-07-10T03:35:16;23.10;;;20.80;;
15488;SDS011;7846;48.830;9.116;2022-07-10T03:38:03;23.00;;;20.73;;
15488;SDS011;7846;48.830;9.116;2022-07-10T03:40:47;24.37;;;20.83;;
15488;SDS011;7846;48.830;9.116;2022-07-10T03:43:32;22.90;;;20.50;;
15488;SDS011;7846;48.830;9.116;2022-07-10T03:46:15;23.17;;;20.67;;
15488;SDS011;7846;48.830;9.116;2022-07-10T03:49:00;22.30;;;20.03;;
15488;SDS011;7846;48.830;9.116;2022-07-10T03:51:45;20.80;;;18.70;;
15488;SDS011;7846;48.830;9.116;2022-07-10T03:54:31;19.10;;;17.30;;
15488;SDS011;7846;48.830;9.116;2022-07-10T03:57:14;18.50;;;16.73;;
15488;SDS011;7846;48.830;9.116;2022-07-10T04:00:22;19.17;;;17.27;;
15488;SDS011;7846;48.830;9.116;2022-07-10T04:03:10;18.60;;;16.80;;
15488;SDS011;7846;48.830;9.116;2022-07-10T04:05:54;18.10;;;16.33;;
15488;SDS011;7846;48.830;9.116;2022-07-10T04:08:38;18.33;;;16.30;;
15488;SDS011;7846;48.830;9.116;2022-07-10T04:11:22;18.87;;;16.87;;
15488;SDS011;7846;48.830;9.116;2022-07-10T04:14:06;17.67;;;16.10;;
15488;SDS011;7846;48.830;9.116;2022-07-10T04:16:50;17.37;;;15.77;;
15488;SDS011;7846;48.830;9.116;2022-07-10T04:19:34;18.63;;;16.80;;
15488;SDS011;7846;48.830;9.116;2022-07-10T04:22:19;17.43;;;15.63;;
15488;SDS011;7846;48.830;9.116;2022-07-10T04:25:03;17.00;;;15.40;;
15488;SDS011;7846;48.830;9.116;2022-07-10T04:27:49;17.23;;;15.73;;
15488;SDS011;7846;48.830;9.116;2022-07-10T04:30:36;16.83;;;15.13;;
15488;SDS011;7846;48.830;9.116;2022-07-10T04:33:20;15.17;;;13.80;;
15488;SDS011;7846;48.830;9.116;2022-07-10T04:36:05;15.10;;;13.87;;
15488;SDS011;7846;48.830;9.116;2022-07-10T04:38:52;15.73;;;13.70;;
15488;SDS011;7846;48.830;9.116;2022-07-10T04:41:36;15.20;;;13.23;;
15488;SDS011;7846;48.830;9.116;2022-07-10T04:44:20;13.47;;;11.90;;
15488;SDS011;7846;48.830;9.116;2022-07-10T04:47:04;10.83;;;9.83;;
15488;SDS011;7846;48.830;9.116;2022-07-10T04:49:49;10.87;;;9.87;;
15488;SDS011;7846;48.830;9.116;2022-07-10T04:52:33;9.50;;;8.50;;
15488;SDS011;7846;48.830;9.116;2022-07-10T04:55:17;8.73;;;7.83;;
15488;SDS011;7846;48.830;9.116;2022-07-10T04:58:01;7.70;;;7.07;;
15488;SDS011;7846;48.830;9.116;2022-07-10T05:00:45;7.70;;;6.77;;
15488;SDS011;7846;48.830;9.116;2022-07-10T05:03:30;7.20;;;6.50;;
15488;SDS011;7846;48.830;9.116;2022-07-10T05:06:13;7.47;;;6.23;;
15488;SDS011;7846;48.830;9.116;2022-07-10T05:08:58;7.57;;;6.40;;
15488;SDS011;7846;48.830;9.116;2022-07-10T05:11:43;6.93;;;6.10;;
15488;SDS011;7846;48.830;9.116;2022-07-10T05:14:30;7.70;;;5.87;;
15488;SDS011;7846;48.830;9.116;2022-07-10T05:17:15;5.80;;;5.20;;
15488;SDS011;7846;48.830;9.116;2022-07-10T05:19:59;5.33;;;4.90;;
15488;SDS011;7846;48.830;9.116;2022-07-10T05:22:43;5.97;;;5.27;;
15488;SDS011;7846;48.830;9.116;2022-07-10T05:25:27;4.83;;;4.43;;
15488;SDS011;7846;48.830;9.116;2022-07-10T05:28:13;5.33;;;4.30;;
15488;SDS011;7846;48.830;9.116;2022-07-10T05:30:58;4.93;;;4.43;;
15488;SDS011;7846;48.830;9.116;2022-07-10T05:33:42;4.43;;;4.00;;
15488;SDS011;7846;48.830;9.116;2022-07-10T05:36:29;4.80;;;4.03;;
15488;SDS011;7846;48.830;9.116;2022-07-10T05:39:14;7.67;;;4.00;;
15488;SDS011;7846;48.830;9.116;2022-07-10T05:41:59;6.53;;;3.77;;
15488;SDS011;7846;48.830;9.116;2022-07-10T05:44:43;3.73;;;3.20;;
15488;SDS011;7846;48.830;9.116;2022-07-10T05:47:28;4.93;;;3.33;;
15488;SDS011;7846;48.830;9.116;2022-07-10T05:50:12;3.23;;;2.93;;
15488;SDS011;7846;48.830;9.116;2022-07-10T05:52:59;4.67;;;2.97;;
15488;SDS011;7846;48.830;9.116;2022-07-10T05:55:43;3.77;;;3.00;;
15488;SDS011;7846;48.830;9.116;2022-07-10T05:58:27;3.30;;;2.80;;
15488;SDS011;7846;48.830;9.116;2022-07-10T06:01:13;3.87;;;2.70;;
15488;SDS011;7846;48.830;9.116;2022-07-10T06:03:57;3.57;;;2.63;;
15488;SDS011;7846;48.830;9.116;2022-07-10T06:06:41;3.70;;;2.80;;
15488;SDS011;7846;48.830;9.116;2022-07-10T06:09:25;3.23;;;2.70;;
15488;SDS011;7846;48.830;9.116;2022-07-10T06:12:09;4.67;;;2.70;;
15488;SDS011;7846;48.830;9.116;2022-07-10T06:14:56;2.93;;;2.63;;
15488;SDS011;7846;48.830;9.116;2022-07-10T06:17:40;3.37;;;2.80;;
15488;SDS011;7846;48.830;9.116;2022-07-10T06:20:24;4.70;;;2.93;;
15488;SDS011;7846;48.830;9.116;2022-07-10T06:23:09;5.07;;;3.00;;
15488;SDS011;7846;48.830;9.116;2022-07-10T06:25:53;3.37;;;2.90;;
15488;SDS011;7846;48.830;9.116;2022-07-10T06:28:37;4.97;;;2.93;;
15488;SDS011;7846;48.830;9.116;2022-07-10T06:31:22;3.83;;;2.90;;
15488;SDS011;7846;48.830;9.116;2022-07-10T06:34:06;4.37;;;2.80;;
15488;SDS011;7846;48.830;9.116;2022-07-10T06:36:50;2.83;;;2.40;;
15488;SDS011;7846;48.830;9.116;2022-07-10T06:39:34;3.27;;;2.30;;
15488;SDS011;7846;48.830;9.116;2022-07-10T06:42:18;2.70;;;2.30;;
15488;SDS011;7846;48.830;9.116;2022-07-10T06:45:05;4.97;;;2.10;;
15488;SDS011;7846;48.830;9.116;2022-07-10T06:47:50;4.03;;;2.07;;
15488;SDS011;7846;48.830;9.116;2022-07-10T06:50:40;3.00;;;2.10;;
15488;SDS011;7846;48.830;9.116;2022-07-10T06:53:24;2.83;;;2.10;;
15488;SDS011;7846;48.830;9.116;2022-07-10T06:56:10;3.77;;;2.20;;
15488;SDS011;7846;48.830;9.116;2022-07-10T06:58:55;2.33;;;2.00;;
15488;SDS011;7846;48.830;9.116;2022-07-10T07:01:42;5.00;;;1.90;;
15488;SDS011;7846;48.830;9.116;2022-07-10T07:04:27;3.97;;;1.70;;
15488;SDS011;7846;48.830;9.116;2022-07-10T07:07:12;2.07;;;1.70;;
15488;SDS011;7846;48.830;9.116;2022-07-10T07:09:57;3.70;;;1.90;;
15488;SDS011;7846;48.830;9.116;2022-07-10T07:12:41;3.70;;;2.00;;
15488;SDS011;7846;48.830;9.116;2022-07-10T07:15:25;3.13;;;1.87;;
15488;SDS011;7846;48.830;9.116;2022-07-10T07:18:10;4.17;;;1.97;;
15488;SDS011;7846;48.830;9.116;2022-07-10T07:20:59;3.77;;;1.80;;
15488;SDS011;7846;48.830;9.116;2022-07-10T07:24:05;2.37;;;1.70;;
15488;SDS011;7846;48.830;9.116;2022-07-10T07:26:49;2.40;;;1.80;;
15488;SDS011;7846;48.830;9.116;2022-07-10T07:29:33;4.37;;;1.80;;
15488;SDS011;7846;48.830;9.116;2022-07-10T07:32:17;2.27;;;1.63;;
15488;SDS011;7846;48.830;9.116;2022-07-10T07:35:03;3.10;;;1.70;;
15488;SDS011;7846;48.830;9.116;2022-07-10T07:37:49;5.80;;;2.03;;
15488;SDS011;7846;48.830;9.116;2022-07-10T07:40:33;3.47;;;1.60;;
15488;SDS011;7846;48.830;9.116;2022-07-10T07:43:17;2.00;;;1.60;;
15488;SDS011;7846;48.830;9.116;2022-07-10T07:46:01;1.87;;;1.40;;
15488;SDS011;7846;48.830;9.116;2022-07-10T07:48:45;2.37;;;1.60;;
15488;SDS011;7846;48.830;9.116;2022-07-10T07:51:29;2.40;;;1.53;;
15488;SDS011;7846;48.830;9.116;2022-07-10T07:54:13;2.80;;;1.30;;
15488;SDS011;7846;48.830;9.116;2022-07-10T07:56:57;3.47;;;1.50;;
15488;SDS011;7846;48.830;9.116;2022-07-10T07:59:41;4.17;;;1.50;;
15488;SDS011;7846;48.830;9.116;2022-07-10T08:02:25;2.33;;;1.30;;
15488;SDS011;7846;48.830;9.116;2022-07-10T08:05:12;1.77;;;1.40;;
15488;SDS011;7846;48.830;9.116;2022-07-10T08:07:57;3.07;;;1.57;;
15488;SDS011;7846;48.830;9.116;2022-07-10T08:10:44;2.43;;;1.47;;
15488;SDS011;7846;48.830;9.116;2022-07-10T08:13:28;2.93;;;1.43;;
15488;SDS011;7846;48.830;9.116;2022-07-10T08:16:12;3.87;;;1.70;;
15488;SDS011;7846;48.830;9.116;2022-07-10T08:18:56;2.97;;;1.57;;
15488;SDS011;7846;48.830;9.116;2022-07-10T08:21:40;2.80;;;1.50;;
15488;SDS011;7846;48.830;9.116;2022-07-10T08:24:24;3.70;;;1.40;;
15488;SDS011;7846;48.830;9.116;2022-07-10T08:27:08;3.20;;;1.50;;
15488;SDS011;7846;48.830;9.116;2022-07-10T08:29:53;2.53;;;1.27;;
15488;SDS011;7846;48.830;9.116;2022-07-10T08:32:38;2.80;;;1.57;;
15488;SDS011;7846;48.830;9.116;2022-07-10T08:35:23;1.87;;;1.03;;
15488;SDS011;7846;48.830;9.116;2022-07-10T08:38:08;2.60;;;1.23;;
15488;SDS011;7846;48.830;9.116;2022-07-10T08:40:53;2.13;;;1.20;;
15488;SDS011;7846;48.830;9.116;2022-07-10T08:43:43;2.13;;;1.40;;
15488;SDS011;7846;48.830;9.116;2022-07-10T08:46:28;1.80;;;1.40;;
15488;SDS011;7846;48.830;9.116;2022-07-10T08:49:16;3.23;;;1.50;;
15488;SDS011;7846;48.830;9.116;2022-07-10T08:54:49;2.43;;;1.37;;
15488;SDS011;7846;48.830;9.116;2022-07-10T08:57:33;1.57;;;1.20;;
15488;SDS011;7846;48.830;9.116;2022-07-10T09:00:18;1.90;;;1.30;;
15488;SDS011;7846;48.830;9.116;2022-07-10T09:03:03;3.23;;;1.47;;
15488;SDS011;7846;48.830;9.116;2022-07-10T09:05:47;2.67;;;1.20;;
15488;SDS011;7846;48.830;9.116;2022-07-10T09:08:32;3.63;;;1.20;;
15488;SDS011;7846;48.830;9.116;2022-07-10T09:11:18;2.97;;;1.20;;
15488;SDS011;7846;48.830;9.116;2022-07-10T09:14:03;1.43;;;1.33;;
15488;SDS011;7846;48.830;9.116;2022-07-10T09:16:51;1.27;;;1.13;;
15488;SDS011;7846;48.830;9.116;2022-07-10T09:19:35;2.00;;;1.30;;
15488;SDS011;7846;48.830;9.116;2022-07-10T09:22:20;2.30;;;1.10;;
15488;SDS011;7846;48.830;9.116;2022-07-10T09:25:11;2.70;;;1.20;;
15488;SDS011;7846;48.830;9.116;2022-07-10T09:27:56;4.70;;;1.20;;
15488;SDS011;7846;48.830;9.116;2022-07-10T09:30:43;1.53;;;1.00;;
15488;SDS011;7846;48.830;9.116;2022-07-10T09:33:29;3.17;;;1.30;;
15488;SDS011;7846;48.830;9.116;2022-07-10T09:36:13;2.70;;;1.20;;
15488;SDS011;7846;48.830;9.116;2022-07-10T09:39:00;2.30;;;1.20;;
15488;SDS011;7846;48.830;9.116;2022-07-10T09:41:43;3.20;;;1.40;;
15488;SDS011;7846;48.830;9.116;2022-07-10T09:44:27;3.77;;;1.30;;
15488;SDS011;7846;48.830;9.116;2022-07-10T09:47:21;1.80;;;1.17;;
15488;SDS011;7846;48.830;9.116;2022-07-10T09:53:12;2.17;;;1.43;;
15488;SDS011;7846;48.830;9.116;2022-07-10T09:55:58;3.10;;;1.20;;
15488;SDS011;7846;48.830;9.116;2022-07-10T09:58:45;3.93;;;1.20;;
15488;SDS011;7846;48.830;9.116;2022-07-10T10:01:32;3.30;;;1.60;;
15488;SDS011;7846;48.830;9.116;2022-07-10T10:04:19;2.53;;;1.30;;
15488;SDS011;7846;48.830;9.116;2022-07-10T10:07:05;1.70;;;1.27;;
15488;SDS011;7846;48.830;9.116;2022-07-10T10:09:56;1.50;;;1.13;;
15488;SDS011;7846;48.830;9.116;2022-07-10T10:12:48;1.27;;;1.13;;
15488;SDS011;7846;48.830;9.116;2022-07-10T10:15:36;2.23;;;1.17;;
15488;SDS011;7846;48.830;9.116;2022-07-10T10:18:22;4.60;;;1.40;;
15488;SDS011;7846;48.830;9.116;2022-07-10T10:21:07;3.73;;;1.40;;
15488;SDS011;7846;48.830;9.116;2022-07-10T10:23:52;1.90;;;1.13;;
15488;SDS011;7846;48.830;9.116;2022-07-10T10:26:37;3.63;;;1.43;;
15488;SDS011;7846;48.830;9.116;2022-07-10T10:29:21;3.17;;;1.50;;
15488;SDS011;7846;48.830;9.116;2022-07-10T10:32:06;2.93;;;1.33;;
15488;SDS011;7846;48.830;9.116;2022-07-10T10:34:51;2.60;;;1.43;;
15488;SDS011;7846;48.830;9.116;2022-07-10T10:37:42;3.40;;;1.60;;
15488;SDS011;7846;48.830;9.116;2022-07-10T10:40:31;4.20;;;1.53;;
15488;SDS011;7846;48.830;9.116;2022-07-10T10:43:20;3.17;;;1.53;;
15488;SDS011;7846;48.830;9.116;2022-07-10T10:46:25;2.90;;;1.40;;
15488;SDS011;7846;48.830;9.116;2022-07-10T10:49:09;2.73;;;1.43;;
15488;SDS011;7846;48.830;9.116;2022-07-10T10:51:57;3.35;;;1.50;;
15488;SDS011;7846;48.830;9.116;2022-07-10T10:57:39;2.33;;;1.10;;
15488;SDS011;7846;48.830;9.116;2022-07-10T11:00:35;2.17;;;1.20;;
15488;SDS011;7846;48.830;9.116;2022-07-10T11:03:23;4.23;;;1.40;;
15488;SDS011;7846;48.830;9.116;2022-07-10T11:06:12;2.30;;;1.10;;
15488;SDS011;7846;48.830;9.116;2022-07-10T11:09:01;2.30;;;1.20;;
15488;SDS011;7846;48.830;9.116;2022-07-10T11:12:14;2.00;;;1.03;;
15488;SDS011;7846;48.830;9.116;2022-07-10T11:14:59;2.10;;;1.10;;
15488;SDS011;7846;48.830;9.116;2022-07-10T11:17:52;2.33;;;1.17;;
15488;SDS011;7846;48.830;9.116;2022-07-10T11:20:40;2.83;;;1.00;;
15488;SDS011;7846;48.830;9.116;2022-07-10T11:26:49;2.20;;;1.10;;
15488;SDS011;7846;48.830;9.116;2022-07-10T11:29:42;1.67;;;0.90;;
15488;SDS011;7846;48.830;9.116;2022-07-10T11:32:31;2.60;;;1.10;;
15488;SDS011;7846;48.830;9.116;2022-07-10T11:35:17;2.40;;;0.90;;
15488;SDS011;7846;48.830;9.116;2022-07-10T11:38:03;1.70;;;1.00;;
15488;SDS011;7846;48.830;9.116;2022-07-10T11:40:47;2.40;;;1.10;;
15488;SDS011;7846;48.830;9.116;2022-07-10T11:43:31;1.92;;;1.10;;
15488;SDS011;7846;48.830;9.116;2022-07-10T11:46:15;2.53;;;0.90;;
15488;SDS011;7846;48.830;9.116;2022-07-10T11:49:03;2.40;;;0.80;;
15488;SDS011;7846;48.830;9.116;2022-07-10T11:51:49;1.87;;;0.93;;
15488;SDS011;7846;48.830;9.116;2022-07-10T11:54:33;1.33;;;0.90;;
15488;SDS011;7846;48.830;9.116;2022-07-10T11:57:17;0.77;;;0.77;;
15488;SDS011;7846;48.830;9.116;2022-07-10T12:00:01;2.43;;;0.83;;
15488;SDS011;7846;48.830;9.116;2022-07-10T12:02:50;1.83;;;0.80;;
15488;SDS011;7846;48.830;9.116;2022-07-10T12:05:36;1.90;;;0.80;;
15488;SDS011;7846;48.830;9.116;2022-07-10T12:08:22;4.10;;;1.00;;
15488;SDS011;7846;48.830;9.116;2022-07-10T12:11:12;2.93;;;0.90;;
15488;SDS011;7846;48.830;9.116;2022-07-10T12:14:10;1.10;;;0.77;;
15488;SDS011;7846;48.830;9.116;2022-07-10T12:16:56;1.10;;;0.73;;
15488;SDS011;7846;48.830;9.116;2022-07-10T12:19:41;2.53;;;0.87;;
15488;SDS011;7846;48.830;9.116;2022-07-10T12:22:26;1.53;;;0.70;;
15488;SDS011;7846;48.830;9.116;2022-07-10T12:25:10;2.00;;;0.97;;
15488;SDS011;7846;48.830;9.116;2022-07-10T12:27:55;1.23;;;0.70;;
15488;SDS011;7846;48.830;9.116;2022-07-10T12:30:43;1.37;;;0.80;;
15488;SDS011;7846;48.830;9.116;2022-07-10T12:33:31;1.97;;;0.83;;
15488;SDS011;7846;48.830;9.116;2022-07-10T12:36:16;2.23;;;1.03;;
15488;SDS011;7846;48.830;9.116;2022-07-10T12:39:00;2.43;;;0.80;;
15488;SDS011;7846;48.830;9.116;2022-07-10T12:41:54;1.10;;;0.63;;
15488;SDS011;7846;48.830;9.116;2022-07-10T12:44:44;1.07;;;0.80;;
15488;SDS011;7846;48.830;9.116;2022-07-10T12:47:42;2.63;;;0.90;;
15488;SDS011;7846;48.830;9.116;2022-07-10T12:50:28;1.17;;;0.80;;
15488;SDS011;7846;48.830;9.116;2022-07-10T12:53:12;2.40;;;0.80;;
15488;SDS011;7846;48.830;9.116;2022-07-10T12:55:57;1.53;;;0.80;;
15488;SDS011;7846;48.830;9.116;2022-07-10T12:58:44;0.67;;;0.67;;
15488;SDS011;7846;48.830;9.116;2022-07-10T13:01:29;1.13;;;0.70;;
15488;SDS011;7846;48.830;9.116;2022-07-10T13:04:24;2.27;;;0.80;;
15488;SDS011;7846;48.830;9.116;2022-07-10T13:07:13;0.67;;;0.63;;
15488;SDS011;7846;48.830;9.116;2022-07-10T13:10:02;2.23;;;0.87;;
15488;SDS011;7846;48.830;9.116;2022-07-10T13:12:48;1.77;;;0.90;;
15488;SDS011;7846;48.830;9.116;2022-07-10T13:15:31;1.57;;;0.80;;
15488;SDS011;7846;48.830;9.116;2022-07-10T13:18:25;1.13;;;0.70;;
15488;SDS011;7846;48.830;9.116;2022-07-10T13:21:11;1.70;;;0.80;;
15488;SDS011;7846;48.830;9.116;2022-07-10T13:23:55;1.17;;;0.73;;
15488;SDS011;7846;48.830;9.116;2022-07-10T13:26:40;1.53;;;0.73;;
15488;SDS011;7846;48.830;9.116;2022-07-10T13:29:27;1.20;;;0.60;;
15488;SDS011;7846;48.830;9.116;2022-07-10T13:32:11;1.30;;;0.80;;
15488;SDS011;7846;48.830;9.116;2022-07-10T13:34:55;1.20;;;0.90;;
15488;SDS011;7846;48.830;9.116;2022-07-10T13:37:39;1.57;;;0.90;;
15488;SDS011;7846;48.830;9.116;2022-07-10T13:40:23;0.87;;;0.67;;
15488;SDS011;7846;48.830;9.116;2022-07-10T13:43:07;2.03;;;0.90;;
15488;SDS011;7846;48.830;9.116;2022-07-10T13:45:53;1.87;;;0.60;;
15488;SDS011;7846;48.830;9.116;2022-07-10T13:48:40;1.27;;;0.90;;
15488;SDS011;7846;48.830;9.116;2022-07-10T13:51:25;1.57;;;0.67;;
15488;SDS011;7846;48.830;9.116;2022-07-10T13:54:09;2.23;;;0.87;;
15488;SDS011;7846;48.830;9.116;2022-07-10T13:56:53;1.63;;;0.70;;
15488;SDS011;7846;48.830;9.116;2022-07-10T13:59:37;2.38;;;0.95;;
15488;SDS011;7846;48.830;9.116;2022-07-10T14:02:22;2.90;;;0.83;;
15488;SDS011;7846;48.830;9.116;2022-07-10T14:05:09;1.03;;;0.80;;
15488;SDS011;7846;48.830;9.116;2022-07-10T14:07:54;1.67;;;0.90;;
15488;SDS011;7846;48.830;9.116;2022-07-10T14:10:38;1.03;;;0.70;;
15488;SDS011;7846;48.830;9.116;2022-07-10T14:13:23;1.20;;;0.80;;
15488;SDS011;7846;48.830;9.116;2022-07-10T14:16:07;2.17;;;0.90;;
15488;SDS011;7846;48.830;9.116;2022-07-10T14:18:51;1.37;;;0.70;;
15488;SDS011;7846;48.830;9.116;2022-07-10T14:21:35;1.80;;;0.70;;
15488;SDS011;7846;48.830;9.116;2022-07-10T14:24:18;2.03;;;0.73;;
15488;SDS011;7846;48.830;9.116;2022-07-10T14:27:03;1.10;;;0.60;;
15488;SDS011;7846;48.830;9.116;2022-07-10T14:29:47;1.33;;;0.90;;
15488;SDS011;7846;48.830;9.116;2022-07-10T14:32:31;1.83;;;0.73;;
15488;SDS011;7846;48.830;9.116;2022-07-10T14:35:16;1.02;;;0.68;;
15488;SDS011;7846;48.830;9.116;2022-07-10T14:38:01;1.20;;;0.80;;
15488;SDS011;7846;48.830;9.116;2022-07-10T14:40:45;1.63;;;0.90;;
15488;SDS011;7846;48.830;9.116;2022-07-10T14:43:29;2.37;;;0.90;;
15488;SDS011;7846;48.830;9.116;2022-07-10T14:46:17;2.13;;;0.70;;
15488;SDS011;7846;48.830;9.116;2022-07-10T14:49:01;2.40;;;0.70;;
15488;SDS011;7846;48.830;9.116;2022-07-10T14:51:45;1.00;;;0.63;;
15488;SDS011;7846;48.830;9.116;2022-07-10T14:54:29;3.43;;;0.80;;
15488;SDS011;7846;48.830;9.116;2022-07-10T14:57:13;1.50;;;0.80;;
15488;SDS011;7846;48.830;9.116;2022-07-10T14:59:56;2.20;;;0.80;;
15488;SDS011;7846;48.830;9.116;2022-07-10T15:02:40;1.03;;;0.80;;
15488;SDS011;7846;48.830;9.116;2022-07-10T15:05:24;1.77;;;0.90;;
15488;SDS011;7846;48.830;9.116;2022-07-10T15:08:09;1.53;;;0.97;;
15488;SDS011;7846;48.830;9.116;2022-07-10T15:10:53;2.53;;;2.30;;
15488;SDS011;7846;48.830;9.116;2022-07-10T15:13:36;1.07;;;0.67;;
15488;SDS011;7846;48.830;9.116;2022-07-10T15:16:20;1.63;;;0.88;;
15488;SDS011;7846;48.830;9.116;2022-07-10T15:19:04;1.73;;;0.80;;
15488;SDS011;7846;48.830;9.116;2022-07-10T15:21:48;1.60;;;0.70;;
15488;SDS011;7846;48.830;9.116;2022-07-10T15:24:34;2.10;;;0.80;;
15488;SDS011;7846;48.830;9.116;2022-07-10T15:27:17;0.90;;;0.80;;
15488;SDS011;7846;48.830;9.116;2022-07-10T15:30:02;1.87;;;0.63;;
15488;SDS011;7846;48.830;9.116;2022-07-10T15:32:50;0.70;;;0.70;;
15488;SDS011;7846;48.830;9.116;2022-07-10T15:35:37;0.93;;;0.70;;
15488;SDS011;7846;48.830;9.116;2022-07-10T15:38:21;1.57;;;0.70;;
15488;SDS011;7846;48.830;9.116;2022-07-10T15:41:05;2.17;;;0.70;;
15488;SDS011;7846;48.830;9.116;2022-07-10T15:43:49;2.33;;;0.83;;
15488;SDS011;7846;48.830;9.116;2022-07-10T15:46:32;1.57;;;0.70;;
15488;SDS011;7846;48.830;9.116;2022-07-10T15:49:16;3.07;;;0.90;;
15488;SDS011;7846;48.830;9.116;2022-07-10T15:52:01;1.03;;;0.70;;
15488;SDS011;7846;48.830;9.116;2022-07-10T15:54:45;1.20;;;0.70;;
15488;SDS011;7846;48.830;9.116;2022-07-10T15:57:30;1.57;;;0.80;;
15488;SDS011;7846;48.830;9.116;2022-07-10T16:00:14;3.20;;;0.90;;
15488;SDS011;7846;48.830;9.116;2022-07-10T16:02:59;1.27;;;0.80;;
15488;SDS011;7846;48.830;9.116;2022-07-10T16:05:43;0.83;;;0.70;;
15488;SDS011;7846;48.830;9.116;2022-07-10T16:08:27;1.60;;;0.90;;
15488;SDS011;7846;48.830;9.116;2022-07-10T16:11:11;1.73;;;0.90;;
15488;SDS011;7846;48.830;9.116;2022-07-10T16:13:56;2.10;;;0.80;;
15488;SDS011;7846;48.830;9.116;2022-07-10T16:16:41;1.20;;;0.80;;
15488;SDS011;7846;48.830;9.116;2022-07-10T16:19:24;1.90;;;0.87;;
15488;SDS011;7846;48.830;9.116;2022-07-10T16:22:09;1.27;;;0.90;;
15488;SDS011;7846;48.830;9.116;2022-07-10T16:24:56;2.07;;;1.00;;
15488;SDS011;7846;48.830;9.116;2022-07-10T16:27:59;1.90;;;0.93;;
15488;SDS011;7846;48.830;9.116;2022-07-10T16:30:43;2.13;;;1.07;;
15488;SDS011;7846;48.830;9.116;2022-07-10T16:33:28;1.30;;;0.93;;
15488;SDS011;7846;48.830;9.116;2022-07-10T16:36:12;2.00;;;1.00;;
15488;SDS011;7846;48.830;9.116;2022-07-10T16:38:57;1.40;;;0.90;;
15488;SDS011;7846;48.830;9.116;2022-07-10T16:41:42;2.60;;;0.90;;
15488;SDS011;7846;48.830;9.116;2022-07-10T16:44:26;1.23;;;0.60;;
15488;SDS011;7846;48.830;9.116;2022-07-10T16:47:11;2.07;;;0.80;;
15488;SDS011;7846;48.830;9.116;2022-07-10T16:49:56;0.93;;;0.60;;
15488;SDS011;7846;48.830;9.116;2022-07-10T16:52:41;1.97;;;1.10;;
15488;SDS011;7846;48.830;9.116;2022-07-10T16:55:25;1.33;;;0.90;;
15488;SDS011;7846;48.830;9.116;2022-07-10T16:58:10;2.90;;;1.00;;
15488;SDS011;7846;48.830;9.116;2022-07-10T17:00:54;1.87;;;1.10;;